Marshall, TX (75670)

3:26 AM CDT on April 19, 2015 (GMT -0500)
Marshall, TX | | Change Station
CLOSE
Current Station
Personal Weather Station
Location: Marshall, TX
Elevation: 371 ft
Nearby Weather Stations

Elev 371 ft 32.53 °N, 94.30 °W | Updated 3 minutes ago

Mostly Cloudy
Mostly Cloudy
58.8 °F
Feels Like 58.8 °F
N
1.1
Wind Variable Wind from NE

Today
High -- | Low -- °F
--% Chance of Precip.
Yesterday
High -- | Low -- °F
Precip. -- in
6:43 AM 7:49 PM
New Moon, 0% visible
Pressure 29.77 in
Visibility 10.0 miles
Clouds Clear
Dew Point 58 °F
Humidity 99%
Rainfall 1.15 in
Snow Depth Not available.
UV 0 out of 12
Pollen 1.00 out of 12
Air Quality Not available.
Flu Activity Local Activity
METAR KASL 190815Z AUTO 00000KT 10SM CLR 16/15 A2977 RMK AO1 T01600147

More Conditions Fewer Conditions

Pressure 29.77 in
Visibility 10.0 miles
Clouds Clear
Dew Point 58 °F
Humidity 99%
Rainfall 1.15 in
Snow Depth Not available.
UV 0 out of 12
Pollen 1.00 out of 12
Air Quality Not available.
Flu Activity Local Activity
METAR KASL 190815Z AUTO 00000KT 10SM CLR 16/15 A2977 RMK AO1 T01600147

More Conditions Fewer Conditions

Nowcast | as of 1:53 am CDT on April 19, 2015

A line of showers and thunderstorms is moving across the four state area extending from southeast Oklahoma...to Texarkana...to Shreveport and into toldeo Bend country. The strongest part of this line extends along and south of I-20 from Bossier City...to Coushatta...to Provencal...to De Ridder. Expect gusty winds to 40 to 50 mph in this area as the line moves eastward at 30 mph. Some dime sized hail is possible as well. Elsewhere along the line... expect winds to be 20 to 40 mph briefly as the rain moves into your area. This line will continue eastward for the next couple of hours...toward El Dorado...Ruston and Alexandria.

×

10-Day Weather Forecast

Almanac

Astronomy

Apr. 19, 2015 Rise Set
Actual Time
Civil Twilight
Nautical Twilight
Astronomical Twilight
Moon
Length of Visible Light
Length of Day
Tomorrow will be .
, % of the Moon is Illuminated

Today's Extremes

State Highs State Lows

Community

WunderPhotos

Upload Photos

1,814,723 photos uploaded!

WunderBlogs® & News

Nearby

Air Quality

  Air Quality AQ Index Pollutant
Not available.

Snow Depth

Station Depth Elevation

Earthquake Activity

City Distance Mag. Time & Date
Minimum magnitude displayed is 2.5.

Coastal Water Temperatures

Place Temperature

Stations

Nearby Weather Stations

Station Location Temp. Windchill Dew Point Humidity Wind Precip. Elev Updated Type